Time;durP1;ratioP1;P1;durP2;ratioP2;P2;SDS_P1;SDS_P2;PMS_P1;PMS_P2;Temp;Humidity;BMP_temperature;BMP_pressure;BME280_temperature;BME280_humidity;BME280_pressure;Samples;Min_cycle;Max_cycle;Signal;HPM_P1;HPM_P2
2024/03/09 00:00:16;;;;;;;77.75;36.42;;;;;;;;;;5073822;28;20017;-76
2024/03/09 00:02:43;;;;;;;73.05;34.45;;;;;;;;;;5070013;28;20029;-77
2024/03/09 00:05:09;;;;;;;67.97;33.97;;;;;;;;;;5071377;28;20066;-77
2024/03/09 00:07:36;;;;;;;73.30;35.17;;;;;;;;;;5066685;28;20433;-77
2024/03/09 00:10:05;;;;;;;72.45;32.60;;;;;;;;;;5069523;28;20045;-77
2024/03/09 00:12:33;;;;;;;72.95;31.67;;;;;;;;;;5066569;28;20351;-77
2024/03/09 00:15:01;;;;;;;70.47;33.63;;;;;;;;;;5069391;28;20086;-78
2024/03/09 00:17:28;;;;;;;67.47;31.80;;;;;;;;;;5069627;28;20020;-77
2024/03/09 00:19:54;;;;;;;66.25;31.90;;;;;;;;;;5070784;28;20358;-77
2024/03/09 00:22:20;;;;;;;71.55;33.08;;;;;;;;;;5057121;28;20119;-77
2024/03/09 00:24:47;;;;;;;69.25;32.33;;;;;;;;;;5069182;28;20020;-77
2024/03/09 00:27:16;;;;;;;77.80;32.67;;;;;;;;;;5069113;28;20047;-77
2024/03/09 00:29:42;;;;;;;70.90;31.10;;;;;;;;;;5068157;28;20115;-77
2024/03/09 00:32:08;;;;;;;65.35;29.15;;;;;;;;;;5059765;28;20027;-77
2024/03/09 00:34:35;;;;;;;66.72;31.75;;;;;;;;;;5065594;28;20028;-77
2024/03/09 00:37:02;;;;;;;70.60;31.55;;;;;;;;;;5067364;28;20021;-78
2024/03/09 00:39:28;;;;;;;71.00;30.95;;;;;;;;;;5066549;28;20115;-77
2024/03/09 00:41:54;;;;;;;65.53;29.70;;;;;;;;;;5061766;28;20052;-77
2024/03/09 00:44:20;;;;;;;63.03;28.67;;;;;;;;;;5053731;28;20106;-78
2024/03/09 00:46:49;;;;;;;60.90;27.95;;;;;;;;;;5057523;28;20025;-77
2024/03/09 00:49:15;;;;;;;60.72;27.08;;;;;;;;;;5057784;28;20033;-77
2024/03/09 00:51:41;;;;;;;65.03;29.77;;;;;;;;;;5057942;28;20497;-77
2024/03/09 00:54:07;;;;;;;62.72;28.33;;;;;;;;;;5059804;28;20025;-77
2024/03/09 00:56:33;;;;;;;65.97;28.27;;;;;;;;;;5062262;28;20064;-77
2024/03/09 00:59:00;;;;;;;60.83;27.58;;;;;;;;;;5059691;28;20498;-77
2024/03/09 01:01:28;;;;;;;67.60;29.35;;;;;;;;;;5060411;28;20018;-77
2024/03/09 01:03:55;;;;;;;67.57;30.25;;;;;;;;;;5046043;28;20029;-78
2024/03/09 01:06:21;;;;;;;67.32;29.70;;;;;;;;;;5065720;28;20558;-77
2024/03/09 01:08:49;;;;;;;64.93;28.13;;;;;;;;;;5057987;28;20047;-77
2024/03/09 01:11:17;;;;;;;72.38;28.60;;;;;;;;;;5046151;28;20064;-78
2024/03/09 01:13:43;;;;;;;65.78;29.75;;;;;;;;;;5048897;28;20017;-77
2024/03/09 01:16:09;;;;;;;64.55;29.67;;;;;;;;;;5065642;28;20024;-78
2024/03/09 01:18:35;;;;;;;60.35;27.70;;;;;;;;;;5050871;28;20025;-78
2024/03/09 01:21:01;;;;;;;60.17;27.85;;;;;;;;;;5034520;28;20037;-77
2024/03/09 01:23:30;;;;;;;59.45;27.77;;;;;;;;;;5050227;28;20095;-77
2024/03/09 01:25:56;;;;;;;60.00;28.92;;;;;;;;;;5048436;28;20025;-77
2024/03/09 01:28:22;;;;;;;62.40;27.92;;;;;;;;;;5039158;28;20030;-77
2024/03/09 01:30:48;;;;;;;56.63;27.63;;;;;;;;;;5069084;28;20398;-77
2024/03/09 01:33:14;;;;;;;58.05;27.50;;;;;;;;;;5055177;28;20029;-77
2024/03/09 01:35:40;;;;;;;62.60;28.60;;;;;;;;;;5065810;28;20027;-77
2024/03/09 01:38:08;;;;;;;63.72;30.33;;;;;;;;;;5060028;28;20009;-77
2024/03/09 01:40:34;;;;;;;65.65;29.15;;;;;;;;;;5063732;28;20482;-77
2024/03/09 01:43:00;;;;;;;52.97;26.95;;;;;;;;;;5056299;28;20120;-78
2024/03/09 01:45:26;;;;;;;54.78;26.92;;;;;;;;;;5066162;28;20024;-77
2024/03/09 01:47:53;;;;;;;62.92;28.17;;;;;;;;;;5072147;28;20013;-77
2024/03/09 01:50:21;;;;;;;57.15;24.50;;;;;;;;;;5071261;28;20032;-78
2024/03/09 01:52:49;;;;;;;54.60;25.55;;;;;;;;;;5072301;28;20048;-78
2024/03/09 01:55:16;;;;;;;66.32;27.40;;;;;;;;;;5070421;28;20505;-77
2024/03/09 01:57:42;;;;;;;64.85;29.13;;;;;;;;;;5061077;28;20065;-78
2024/03/09 02:00:09;;;;;;;59.08;27.33;;;;;;;;;;5055835;28;20029;-77
2024/03/09 02:02:35;;;;;;;55.13;26.35;;;;;;;;;;5051414;28;20164;-77
2024/03/09 02:05:10;;;;;;;53.55;25.67;;;;;;;;;;5052168;28;20386;-78
2024/03/09 02:07:36;;;;;;;64.28;28.75;;;;;;;;;;5051284;28;20555;-78
2024/03/09 02:10:02;;;;;;;56.83;28.23;;;;;;;;;;5052325;28;20036;-77
2024/03/09 02:12:28;;;;;;;59.42;28.13;;;;;;;;;;5052315;28;20116;-77
2024/03/09 02:14:54;;;;;;;60.83;27.65;;;;;;;;;;5067789;28;20121;-77
2024/03/09 02:17:22;;;;;;;64.88;28.48;;;;;;;;;;5062332;28;20105;-78
2024/03/09 02:19:48;;;;;;;62.10;28.45;;;;;;;;;;5052194;28;20111;-77
2024/03/09 02:22:16;;;;;;;59.67;27.42;;;;;;;;;;5052241;28;20023;-77
2024/03/09 02:24:42;;;;;;;68.65;28.98;;;;;;;;;;5053497;28;20474;-77
2024/03/09 02:27:08;;;;;;;57.13;28.70;;;;;;;;;;5061312;28;20025;-78
2024/03/09 02:29:35;;;;;;;66.10;29.17;;;;;;;;;;5052493;28;20462;-78
2024/03/09 02:32:01;;;;;;;63.72;29.38;;;;;;;;;;5050924;28;20017;-77
2024/03/09 02:34:27;;;;;;;66.40;29.50;;;;;;;;;;5052103;28;20017;-77
2024/03/09 02:36:54;;;;;;;65.80;28.08;;;;;;;;;;5052192;28;20379;-77
2024/03/09 02:39:20;;;;;;;69.97;29.23;;;;;;;;;;5051109;28;20087;-77
2024/03/09 02:41:46;;;;;;;65.25;30.17;;;;;;;;;;5051164;28;20112;-77
2024/03/09 02:44:12;;;;;;;60.53;28.90;;;;;;;;;;5051904;28;20048;-77
2024/03/09 02:46:39;;;;;;;60.08;26.80;;;;;;;;;;5062037;28;20454;-77
2024/03/09 02:49:05;;;;;;;65.63;29.10;;;;;;;;;;5070295;28;20031;-78
2024/03/09 02:51:32;;;;;;;62.10;29.58;;;;;;;;;;5075244;28;20101;-78
2024/03/09 02:53:58;;;;;;;66.95;29.23;;;;;;;;;;5073401;28;20108;-77
2024/03/09 02:56:25;;;;;;;66.47;30.50;;;;;;;;;;5073605;28;20059;-77
2024/03/09 02:58:51;;;;;;;62.28;28.52;;;;;;;;;;5073756;28;20427;-77
2024/03/09 03:01:18;;;;;;;62.75;29.42;;;;;;;;;;5074052;28;20489;-77
2024/03/09 03:03:55;;;;;;;62.05;29.05;;;;;;;;;;5068600;28;20021;-77
2024/03/09 03:06:21;;;;;;;74.70;29.15;;;;;;;;;;5061908;28;20390;-77
2024/03/09 03:08:48;;;;;;;68.50;30.33;;;;;;;;;;5064448;28;20083;-77
2024/03/09 03:11:16;;;;;;;67.45;30.00;;;;;;;;;;5066244;28;20501;-77
2024/03/09 03:13:42;;;;;;;64.15;28.52;;;;;;;;;;5058324;28;20478;-77
2024/03/09 03:16:16;;;;;;;68.60;30.08;;;;;;;;;;5062936;28;20024;-77
2024/03/09 03:18:43;;;;;;;59.30;28.85;;;;;;;;;;5054254;28;20025;-77
2024/03/09 03:21:09;;;;;;;69.63;29.92;;;;;;;;;;5067292;28;20028;-77
2024/03/09 03:23:36;;;;;;;71.40;31.35;;;;;;;;;;5073442;28;20024;-78
2024/03/09 03:26:03;;;;;;;62.53;30.30;;;;;;;;;;5061592;28;20032;-77
2024/03/09 03:28:32;;;;;;;59.65;28.95;;;;;;;;;;5055932;28;20047;-77
2024/03/09 03:30:58;;;;;;;72.03;31.05;;;;;;;;;;5055693;28;20037;-77
2024/03/09 03:33:25;;;;;;;64.70;30.10;;;;;;;;;;5066691;28;20025;-77
2024/03/09 03:35:52;;;;;;;68.63;27.90;;;;;;;;;;5056307;28;20020;-77
2024/03/09 03:38:18;;;;;;;67.38;30.13;;;;;;;;;;5058515;28;20025;-77
2024/03/09 03:40:44;;;;;;;64.10;29.98;;;;;;;;;;5061538;28;20020;-77
2024/03/09 03:43:10;;;;;;;74.63;32.40;;;;;;;;;;5058116;28;20235;-78
2024/03/09 03:45:36;;;;;;;66.10;32.35;;;;;;;;;;5059152;28;20024;-77
2024/03/09 03:48:04;;;;;;;61.65;29.48;;;;;;;;;;5055116;28;20099;-78
2024/03/09 03:50:30;;;;;;;62.58;30.08;;;;;;;;;;5063987;28;20106;-77
2024/03/09 03:52:56;;;;;;;65.38;30.02;;;;;;;;;;5061691;28;20135;-78
2024/03/09 03:55:24;;;;;;;71.47;30.70;;;;;;;;;;5067339;28;20115;-77
2024/03/09 03:57:50;;;;;;;64.88;30.98;;;;;;;;;;5068590;28;20027;-78
2024/03/09 04:00:17;;;;;;;63.70;30.98;;;;;;;;;;5058525;28;20024;-77
2024/03/09 04:02:43;;;;;;;73.55;30.73;;;;;;;;;;5053979;28;20025;-78
2024/03/09 04:05:09;;;;;;;59.22;27.83;;;;;;;;;;5058152;28;20023;-77
2024/03/09 04:07:35;;;;;;;68.00;29.27;;;;;;;;;;5055770;28;20020;-77
2024/03/09 04:10:01;;;;;;;66.25;30.70;;;;;;;;;;5057207;28;20033;-78
2024/03/09 04:12:27;;;;;;;64.82;29.30;;;;;;;;;;5070789;28;20036;-77
2024/03/09 04:14:56;;;;;;;68.50;30.30;;;;;;;;;;5067328;28;20425;-77
2024/03/09 04:17:23;;;;;;;69.93;30.83;;;;;;;;;;5055148;28;20364;-77
2024/03/09 04:19:49;;;;;;;70.10;33.38;;;;;;;;;;5052848;28;20021;-77
2024/03/09 04:22:15;;;;;;;74.22;31.80;;;;;;;;;;5057418;28;20432;-78
2024/03/09 04:24:44;;;;;;;84.65;36.53;;;;;;;;;;5060628;28;20104;-77
2024/03/09 04:27:10;;;;;;;81.35;38.00;;;;;;;;;;5055830;28;20025;-77
2024/03/09 04:29:37;;;;;;;77.70;38.03;;;;;;;;;;5057379;28;20024;-77
2024/03/09 04:32:03;;;;;;;84.03;39.22;;;;;;;;;;5062641;28;20018;-78
2024/03/09 04:34:33;;;;;;;73.43;35.35;;;;;;;;;;5070517;28;20032;-77
2024/03/09 04:36:59;;;;;;;68.82;32.85;;;;;;;;;;5071032;28;20024;-77
2024/03/09 04:39:25;;;;;;;67.20;32.15;;;;;;;;;;5066406;28;21375;-77
2024/03/09 04:41:54;;;;;;;65.43;31.05;;;;;;;;;;5062991;28;20025;-77
2024/03/09 04:44:23;;;;;;;65.97;30.98;;;;;;;;;;5062240;28;20071;-77
2024/03/09 04:46:51;;;;;;;79.15;32.63;;;;;;;;;;5065608;28;20485;-76
2024/03/09 04:49:17;;;;;;;72.95;32.63;;;;;;;;;;5056028;28;20029;-77
2024/03/09 04:51:43;;;;;;;70.43;32.10;;;;;;;;;;5061526;28;20063;-77
2024/03/09 04:54:10;;;;;;;68.07;30.98;;;;;;;;;;5070007;28;20020;-77
2024/03/09 04:56:36;;;;;;;72.78;30.75;;;;;;;;;;5060886;28;20021;-77
2024/03/09 04:59:02;;;;;;;66.47;31.70;;;;;;;;;;5070402;28;20542;-77
2024/03/09 05:01:28;;;;;;;78.45;33.13;;;;;;;;;;5070648;28;20379;-77
2024/03/09 05:03:54;;;;;;;83.18;34.47;;;;;;;;;;5052820;28;20021;-77
2024/03/09 05:06:20;;;;;;;76.55;34.58;;;;;;;;;;5054835;28;20041;-77
2024/03/09 05:08:46;;;;;;;74.60;32.20;;;;;;;;;;5054078;28;20487;-78
2024/03/09 05:11:13;;;;;;;77.35;35.95;;;;;;;;;;5055932;28;20032;-77
2024/03/09 05:13:39;;;;;;;75.95;31.35;;;;;;;;;;5058534;28;20013;-77
2024/03/09 05:16:05;;;;;;;74.97;33.58;;;;;;;;;;5062358;28;20021;-77
2024/03/09 05:18:31;;;;;;;79.93;35.17;;;;;;;;;;5054590;28;20082;-77
2024/03/09 05:20:57;;;;;;;69.70;33.10;;;;;;;;;;5057915;28;20112;-77
2024/03/09 05:23:23;;;;;;;76.20;33.92;;;;;;;;;;5056951;28;20057;-77
2024/03/09 05:25:49;;;;;;;72.35;32.15;;;;;;;;;;5057121;28;20147;-77
2024/03/09 05:28:19;;;;;;;72.40;34.55;;;;;;;;;;5057504;28;20468;-77
2024/03/09 05:30:45;;;;;;;75.53;34.88;;;;;;;;;;5059704;28;20028;-77
2024/03/09 05:33:11;;;;;;;83.88;36.33;;;;;;;;;;5057273;28;20108;-78
2024/03/09 05:35:39;;;;;;;83.60;36.25;;;;;;;;;;5060472;28;20024;-78
2024/03/09 05:38:05;;;;;;;77.82;35.63;;;;;;;;;;5057106;28;20070;-78
2024/03/09 05:40:32;;;;;;;72.35;32.85;;;;;;;;;;5055366;28;20029;-78
2024/03/09 05:43:01;;;;;;;70.03;31.70;;;;;;;;;;5055753;28;20483;-78
2024/03/09 05:45:27;;;;;;;72.35;31.10;;;;;;;;;;5061018;28;20033;-78
2024/03/09 05:47:55;;;;;;;68.80;30.70;;;;;;;;;;5042995;28;20056;-77
2024/03/09 05:50:21;;;;;;;71.97;33.83;;;;;;;;;;5057731;28;20166;-77
2024/03/09 05:52:48;;;;;;;78.40;34.95;;;;;;;;;;5045712;28;20398;-77
2024/03/09 05:55:16;;;;;;;77.82;32.25;;;;;;;;;;5058586;28;20390;-77
2024/03/09 05:57:43;;;;;;;78.07;35.10;;;;;;;;;;5052496;28;20547;-77
2024/03/09 06:00:15;;;;;;;75.20;34.85;;;;;;;;;;5055147;28;20024;-77
2024/03/09 06:02:42;;;;;;;71.53;33.85;;;;;;;;;;5054122;28;20059;-78
2024/03/09 06:05:08;;;;;;;80.95;36.92;;;;;;;;;;5054205;28;20117;-77
2024/03/09 06:07:38;;;;;;;84.47;39.47;;;;;;;;;;5071642;28;20108;-77
2024/03/09 06:10:07;;;;;;;87.25;40.22;;;;;;;;;;5070276;28;20033;-77
2024/03/09 06:12:33;;;;;;;94.70;39.22;;;;;;;;;;5069797;28;20033;-78
2024/03/09 06:14:59;;;;;;;78.05;36.15;;;;;;;;;;5067490;28;20111;-78
2024/03/09 06:17:25;;;;;;;83.35;37.20;;;;;;;;;;5053018;28;20501;-77
2024/03/09 06:19:51;;;;;;;81.13;38.40;;;;;;;;;;5054031;28;20109;-77
2024/03/09 06:22:18;;;;;;;76.72;33.22;;;;;;;;;;5055235;28;20096;-77
2024/03/09 06:24:44;;;;;;;76.68;32.55;;;;;;;;;;5056327;28;20040;-78
2024/03/09 06:27:10;;;;;;;73.55;33.30;;;;;;;;;;5065733;28;20422;-78
2024/03/09 06:29:37;;;;;;;72.47;33.20;;;;;;;;;;5059135;28;20027;-78
2024/03/09 06:32:05;;;;;;;80.35;35.97;;;;;;;;;;5060525;28;20033;-78
2024/03/09 06:34:31;;;;;;;75.38;36.17;;;;;;;;;;5062309;28;20052;-77
2024/03/09 06:36:57;;;;;;;76.90;36.45;;;;;;;;;;5062972;28;20021;-77
2024/03/09 06:39:30;;;;;;;75.30;37.10;;;;;;;;;;5067760;28;20043;-78
2024/03/09 06:41:57;;;;;;;72.90;36.33;;;;;;;;;;5071563;28;20111;-77
2024/03/09 06:44:23;;;;;;;68.88;33.53;;;;;;;;;;5058466;28;20056;-78
2024/03/09 06:46:52;;;;;;;76.63;34.40;;;;;;;;;;5064652;28;20017;-78
2024/03/09 06:49:19;;;;;;;72.57;37.05;;;;;;;;;;5068322;28;20067;-77
2024/03/09 06:51:45;;;;;;;76.13;35.85;;;;;;;;;;5070711;28;20066;-77
2024/03/09 06:54:11;;;;;;;71.63;34.75;;;;;;;;;;5067887;28;20100;-77
2024/03/09 06:56:37;;;;;;;74.55;33.97;;;;;;;;;;5063660;28;20132;-77
2024/03/09 06:59:03;;;;;;;70.32;33.85;;;;;;;;;;5054579;28;20028;-78
2024/03/09 07:01:32;;;;;;;70.32;35.10;;;;;;;;;;5056471;28;20029;-78
2024/03/09 07:04:03;;;;;;;72.70;31.92;;;;;;;;;;5050587;28;20038;-76
2024/03/09 07:06:29;;;;;;;73.55;34.70;;;;;;;;;;5053312;28;20562;-75
2024/03/09 07:08:55;;;;;;;72.88;34.92;;;;;;;;;;5058488;28;20025;-75
2024/03/09 07:11:22;;;;;;;71.78;34.83;;;;;;;;;;5060534;28;20040;-76
2024/03/09 07:13:48;;;;;;;70.70;33.25;;;;;;;;;;5050350;28;20028;-76
2024/03/09 07:16:15;;;;;;;65.65;32.85;;;;;;;;;;5060579;28;20020;-75
2024/03/09 07:18:41;;;;;;;68.90;30.73;;;;;;;;;;5057367;28;20047;-75
2024/03/09 07:21:10;;;;;;;56.25;27.75;;;;;;;;;;5046138;28;20029;-76
2024/03/09 07:23:36;;;;;;;55.13;30.10;;;;;;;;;;5072619;28;20493;-76
2024/03/09 07:26:03;;;;;;;62.20;29.88;;;;;;;;;;5062573;28;20026;-76
2024/03/09 07:28:30;;;;;;;66.15;32.08;;;;;;;;;;5070607;28;20481;-76
2024/03/09 07:30:56;;;;;;;65.47;30.95;;;;;;;;;;5064174;28;20037;-76
2024/03/09 07:33:22;;;;;;;66.90;32.92;;;;;;;;;;5066438;28;20389;-76
2024/03/09 07:35:51;;;;;;;60.20;31.17;;;;;;;;;;5057609;28;20068;-76
2024/03/09 07:38:17;;;;;;;53.22;28.23;;;;;;;;;;5065409;28;20074;-76
2024/03/09 07:40:43;;;;;;;60.15;31.27;;;;;;;;;;5060992;28;20100;-76
2024/03/09 07:43:17;;;;;;;60.58;31.65;;;;;;;;;;5068314;28;20047;-76
2024/03/09 07:45:43;;;;;;;60.83;30.63;;;;;;;;;;5048870;28;20041;-76
2024/03/09 07:48:14;;;;;;;58.53;29.85;;;;;;;;;;5057366;28;20033;-77
2024/03/09 07:50:40;;;;;;;55.63;28.88;;;;;;;;;;5059605;28;20167;-76
2024/03/09 07:53:06;;;;;;;66.72;30.33;;;;;;;;;;5050827;28;20028;-76
2024/03/09 07:55:32;;;;;;;53.15;26.27;;;;;;;;;;5057498;28;20543;-76
2024/03/09 07:57:58;;;;;;;49.90;25.75;;;;;;;;;;5061237;28;20028;-77
2024/03/09 08:00:28;;;;;;;52.67;27.73;;;;;;;;;;5068210;28;20029;-77
2024/03/09 08:02:55;;;;;;;55.25;29.48;;;;;;;;;;5062324;28;20038;-77
2024/03/09 08:05:22;;;;;;;57.40;29.23;;;;;;;;;;5047224;28;20028;-76
2024/03/09 08:07:49;;;;;;;58.58;27.80;;;;;;;;;;5034633;28;20427;-76
2024/03/09 08:10:17;;;;;;;51.60;26.27;;;;;;;;;;5065980;28;20055;-76
2024/03/09 08:12:44;;;;;;;49.97;25.10;;;;;;;;;;5066448;28;20021;-76
2024/03/09 08:15:11;;;;;;;47.30;23.48;;;;;;;;;;5063620;28;20060;-76
2024/03/09 08:17:37;;;;;;;47.63;25.25;;;;;;;;;;5057541;28;20509;-75
2024/03/09 08:20:08;;;;;;;42.97;22.52;;;;;;;;;;5057903;28;20039;-75
2024/03/09 08:22:36;;;;;;;41.75;22.15;;;;;;;;;;5053654;28;20111;-76
2024/03/09 08:25:07;;;;;;;42.05;23.20;;;;;;;;;;5044537;28;20118;-78
2024/03/09 08:27:37;;;;;;;42.20;21.88;;;;;;;;;;5045013;28;20167;-77
2024/03/09 08:30:05;;;;;;;41.13;20.55;;;;;;;;;;5044599;28;20037;-76
2024/03/09 08:32:32;;;;;;;35.83;20.63;;;;;;;;;;5055186;28;20067;-78
2024/03/09 08:34:58;;;;;;;39.42;23.40;;;;;;;;;;5044906;28;20483;-78
2024/03/09 08:37:25;;;;;;;34.17;20.67;;;;;;;;;;5050442;28;20024;-77
2024/03/09 08:39:52;;;;;;;37.95;19.88;;;;;;;;;;5069521;28;20096;-78
2024/03/09 08:42:18;;;;;;;35.83;20.30;;;;;;;;;;5054012;28;20455;-78
2024/03/09 08:44:44;;;;;;;41.45;21.05;;;;;;;;;;5048460;28;20075;-77
2024/03/09 08:47:10;;;;;;;37.05;19.73;;;;;;;;;;5050954;28;20490;-78
2024/03/09 08:49:36;;;;;;;33.28;19.65;;;;;;;;;;5056794;28;20071;-77
2024/03/09 08:52:03;;;;;;;38.63;20.38;;;;;;;;;;5061440;28;20025;-78
2024/03/09 08:54:31;;;;;;;153.70;66.57;;;;;;;;;;5057635;28;20075;-77
2024/03/09 08:56:58;;;;;;;72.88;39.55;;;;;;;;;;5052138;28;20459;-78
2024/03/09 08:59:25;;;;;;;89.82;49.22;;;;;;;;;;5052541;28;20045;-77
2024/03/09 09:01:51;;;;;;;52.97;29.50;;;;;;;;;;5052518;28;20024;-77
2024/03/09 09:04:17;;;;;;;35.63;19.42;;;;;;;;;;5052179;28;20024;-77
2024/03/09 09:06:44;;;;;;;41.10;23.83;;;;;;;;;;5054787;28;20017;-77
2024/03/09 09:09:19;;;;;;;35.08;21.80;;;;;;;;;;5054168;28;20032;-76
2024/03/09 09:11:46;;;;;;;39.55;23.55;;;;;;;;;;5055128;28;20037;-76
2024/03/09 09:14:12;;;;;;;31.65;19.45;;;;;;;;;;5058248;28;20024;-76
2024/03/09 09:16:40;;;;;;;26.98;17.08;;;;;;;;;;5053888;28;20100;-76
2024/03/09 09:19:06;;;;;;;29.65;17.98;;;;;;;;;;5057382;28;20025;-76
2024/03/09 09:21:34;;;;;;;23.50;14.48;;;;;;;;;;5059891;28;20112;-76
2024/03/09 09:24:02;;;;;;;21.35;13.48;;;;;;;;;;5053839;28;20028;-76
2024/03/09 09:26:32;;;;;;;23.38;13.32;;;;;;;;;;5054401;28;20024;-76
2024/03/09 09:28:59;;;;;;;26.65;15.95;;;;;;;;;;5058770;28;20025;-78
2024/03/09 09:31:27;;;;;;;74.88;51.60;;;;;;;;;;5065755;28;20111;-76
2024/03/09 09:33:53;;;;;;;22.25;14.80;;;;;;;;;;5061749;28;20505;-76
2024/03/09 09:36:19;;;;;;;21.90;12.75;;;;;;;;;;5059398;28;20029;-76
2024/03/09 09:38:45;;;;;;;22.15;14.30;;;;;;;;;;5058639;28;20021;-75
2024/03/09 09:41:13;;;;;;;27.02;18.33;;;;;;;;;;5047995;28;20462;-76
2024/03/09 09:43:40;;;;;;;25.52;15.55;;;;;;;;;;5047826;28;20095;-76
2024/03/09 09:46:06;;;;;;;24.95;13.35;;;;;;;;;;5047565;28;20043;-74
2024/03/09 09:48:32;;;;;;;22.27;13.25;;;;;;;;;;5056169;28;20079;-74
2024/03/09 09:50:59;;;;;;;19.08;11.40;;;;;;;;;;5065646;28;20479;-74
2024/03/09 09:53:25;;;;;;;49.75;24.88;;;;;;;;;;5065096;28;20103;-76
2024/03/09 09:55:51;;;;;;;41.42;22.95;;;;;;;;;;5064832;28;20028;-76
2024/03/09 09:58:17;;;;;;;20.10;12.98;;;;;;;;;;5063261;28;20036;-80
2024/03/09 10:00:43;;;;;;;16.80;10.93;;;;;;;;;;5059291;28;20032;-81
2024/03/09 10:03:10;;;;;;;16.67;9.80;;;;;;;;;;5048945;28;20031;-79
2024/03/09 10:05:36;;;;;;;13.93;9.45;;;;;;;;;;5054652;28;20023;-79
2024/03/09 10:08:05;;;;;;;13.13;7.82;;;;;;;;;;5051018;28;20108;-79
2024/03/09 10:10:32;;;;;;;39.90;18.13;;;;;;;;;;5053526;28;20098;-82
2024/03/09 10:13:08;;;;;;;13.45;8.85;;;;;;;;;;5050550;28;20119;-80
2024/03/09 10:15:35;;;;;;;24.50;11.07;;;;;;;;;;5052444;28;20033;-80
2024/03/09 10:18:02;;;;;;;24.23;13.05;;;;;;;;;;5053115;28;20490;-79
2024/03/09 10:20:29;;;;;;;15.38;9.55;;;;;;;;;;5054631;28;20053;-78
2024/03/09 10:22:57;;;;;;;20.98;11.55;;;;;;;;;;5058311;28;20021;-80
2024/03/09 10:25:25;;;;;;;25.60;11.63;;;;;;;;;;5055040;28;20490;-80
2024/03/09 10:27:52;;;;;;;13.77;10.07;;;;;;;;;;5056001;28;20112;-77
2024/03/09 10:30:18;;;;;;;18.83;9.68;;;;;;;;;;5051849;28;20618;-79
2024/03/09 10:32:44;;;;;;;16.90;10.15;;;;;;;;;;5060240;28;20052;-80
2024/03/09 10:35:11;;;;;;;22.80;12.80;;;;;;;;;;5063538;28;20023;-79
2024/03/09 10:37:40;;;;;;;26.75;12.90;;;;;;;;;;5050083;28;20389;-78
2024/03/09 10:40:12;;;;;;;16.98;10.00;;;;;;;;;;5055528;28;20021;-78
2024/03/09 10:42:42;;;;;;;78.47;36.40;;;;;;;;;;5041909;28;20021;-78
2024/03/09 10:45:11;;;;;;;29.02;15.60;;;;;;;;;;5049354;28;20040;-78
2024/03/09 10:47:39;;;;;;;40.08;17.83;;;;;;;;;;5049157;28;20021;-78
2024/03/09 10:50:09;;;;;;;24.67;12.23;;;;;;;;;;5057011;28;20120;-79
2024/03/09 10:52:39;;;;;;;28.83;14.13;;;;;;;;;;5061684;28;20031;-78
2024/03/09 10:55:10;;;;;;;26.20;13.50;;;;;;;;;;5045850;28;20028;-78
2024/03/09 10:57:37;;;;;;;15.23;7.80;;;;;;;;;;5048874;28;20533;-78
2024/03/09 11:00:03;;;;;;;32.42;16.98;;;;;;;;;;5057116;28;20032;-78
2024/03/09 11:02:30;;;;;;;19.10;11.18;;;;;;;;;;5070133;28;20064;-76
2024/03/09 11:04:56;;;;;;;23.58;11.98;;;;;;;;;;5046277;28;20029;-77
2024/03/09 11:07:22;;;;;;;19.55;10.95;;;;;;;;;;5051508;28;20032;-77
2024/03/09 11:09:53;;;;;;;16.98;9.50;;;;;;;;;;5056592;28;20032;-77
2024/03/09 11:15:22;;;;;;;;;;;;;;;;;;5058388;28;20382;-77
2024/03/09 11:17:54;;;;;;;17.50;9.80;;;;;;;;;;5061610;28;20007;-77
2024/03/09 11:20:23;;;;;;;13.98;7.88;;;;;;;;;;5054956;28;20048;-76
2024/03/09 11:22:49;;;;;;;13.25;7.10;;;;;;;;;;5048802;28;20036;-77
2024/03/09 11:25:16;;;;;;;18.65;11.18;;;;;;;;;;5058953;28;20043;-77
2024/03/09 11:27:42;;;;;;;21.50;10.98;;;;;;;;;;5058681;28;20021;-77
2024/03/09 11:30:09;;;;;;;10.50;7.18;;;;;;;;;;5049809;28;20079;-76
2024/03/09 11:32:36;;;;;;;12.50;7.93;;;;;;;;;;5059697;28;20386;-78
2024/03/09 11:35:21;;;;;;;10.95;6.60;;;;;;;;;;5049406;28;20124;-76
2024/03/09 11:37:50;;;;;;;9.13;6.15;;;;;;;;;;5054295;28;20023;-77
2024/03/09 11:40:17;;;;;;;10.82;6.68;;;;;;;;;;5054834;28;20029;-77
2024/03/09 11:42:44;;;;;;;8.43;5.93;;;;;;;;;;5059132;28;20030;-76
2024/03/09 11:45:13;;;;;;;10.15;6.43;;;;;;;;;;5048286;28;20032;-78
2024/03/09 11:47:40;;;;;;;9.75;6.78;;;;;;;;;;5043429;28;20021;-78
2024/03/09 11:50:06;;;;;;;11.35;6.90;;;;;;;;;;5039028;28;20033;-77
2024/03/09 11:52:32;;;;;;;10.88;7.35;;;;;;;;;;5042120;28;20029;-77
2024/03/09 11:55:03;;;;;;;11.25;8.02;;;;;;;;;;5044492;28;20159;-78
2024/03/09 11:57:30;;;;;;;12.63;7.63;;;;;;;;;;5042220;28;20486;-76
2024/03/09 11:59:57;;;;;;;14.07;8.23;;;;;;;;;;5055095;28;20019;-76
2024/03/09 12:02:36;;;;;;;;;;;;;;;;;;;;;
2024/03/09 12:05:05;;;;;;;14.15;8.65;;;;;;;;;;5068822;28;20027;-76
2024/03/09 12:07:32;;;;;;;13.93;9.23;;;;;;;;;;5071769;28;20024;-75
2024/03/09 12:10:00;;;;;;;10.48;7.60;;;;;;;;;;5056223;28;20462;-76
2024/03/09 12:12:26;;;;;;;14.07;7.80;;;;;;;;;;5071236;28;20029;-76
2024/03/09 12:14:53;;;;;;;12.52;8.38;;;;;;;;;;5066264;28;20028;-76
2024/03/09 12:17:19;;;;;;;14.13;9.00;;;;;;;;;;5051220;28;20470;-76
2024/03/09 12:19:47;;;;;;;14.68;8.98;;;;;;;;;;5057665;28;20067;-76
2024/03/09 12:22:13;;;;;;;15.02;9.00;;;;;;;;;;5052834;28;20056;-76
2024/03/09 12:24:40;;;;;;;15.57;7.78;;;;;;;;;;5062015;28;20050;-76
2024/03/09 12:27:08;;;;;;;12.85;8.60;;;;;;;;;;5059374;28;20029;-77
2024/03/09 12:29:34;;;;;;;15.63;9.65;;;;;;;;;;5044871;28;20047;-77
2024/03/09 12:32:01;;;;;;;8.88;6.47;;;;;;;;;;5055660;28;20179;-77
2024/03/09 12:34:27;;;;;;;10.85;6.35;;;;;;;;;;5046524;28;20028;-78
2024/03/09 12:36:54;;;;;;;8.40;6.20;;;;;;;;;;5050648;28;20032;-77
2024/03/09 12:39:20;;;;;;;13.07;7.07;;;;;;;;;;5052318;28;20036;-77
2024/03/09 12:41:51;;;;;;;13.13;8.68;;;;;;;;;;5058844;28;20013;-76
2024/03/09 12:44:17;;;;;;;25.58;14.60;;;;;;;;;;5055762;28;20063;-77
2024/03/09 12:46:43;;;;;;;20.25;11.95;;;;;;;;;;5053567;28;20017;-77
2024/03/09 12:49:13;;;;;;;27.65;15.73;;;;;;;;;;5054222;28;20045;-77
2024/03/09 12:51:57;;;;;;;26.65;14.43;;;;;;;;;;5053303;28;20074;-76
2024/03/09 12:54:23;;;;;;;21.38;12.20;;;;;;;;;;5045483;28;20044;-78
2024/03/09 12:56:51;;;;;;;15.27;9.95;;;;;;;;;;5057263;28;20095;-78
2024/03/09 12:59:20;;;;;;;18.58;11.70;;;;;;;;;;5043116;28;20048;-78
2024/03/09 13:01:47;;;;;;;21.25;10.98;;;;;;;;;;5056617;28;20020;-77
2024/03/09 13:04:17;;;;;;;24.60;13.95;;;;;;;;;;5062934;28;20510;-75
2024/03/09 13:06:44;;;;;;;21.05;11.00;;;;;;;;;;5062069;28;20052;-79
2024/03/09 13:09:16;;;;;;;19.98;13.68;;;;;;;;;;5049792;28;20463;-76
2024/03/09 13:11:42;;;;;;;22.92;13.02;;;;;;;;;;5043251;28;20043;-78
2024/03/09 13:14:08;;;;;;;23.33;14.40;;;;;;;;;;5064961;28;20477;-80
2024/03/09 13:16:34;;;;;;;25.35;13.77;;;;;;;;;;5056116;28;20078;-80
2024/03/09 13:19:01;;;;;;;25.98;15.43;;;;;;;;;;5052733;28;20634;-78
2024/03/09 13:21:27;;;;;;;24.00;15.63;;;;;;;;;;5055718;28;20017;-77
2024/03/09 13:23:58;;;;;;;27.25;15.90;;;;;;;;;;5047643;28;20032;-78
2024/03/09 13:26:24;;;;;;;33.30;17.23;;;;;;;;;;5041308;28;20483;-76
2024/03/09 13:28:50;;;;;;;28.60;17.45;;;;;;;;;;5059153;28;20032;-77
2024/03/09 13:31:17;;;;;;;28.23;16.20;;;;;;;;;;5048575;28;20055;-77
2024/03/09 13:33:44;;;;;;;30.42;17.27;;;;;;;;;;5054598;28;20036;-78
2024/03/09 13:36:16;;;;;;;31.55;17.00;;;;;;;;;;5053469;28;20025;-77
2024/03/09 13:38:47;;;;;;;28.45;15.52;;;;;;;;;;5054465;28;20024;-79
2024/03/09 13:41:13;;;;;;;25.88;14.45;;;;;;;;;;5049142;28;20021;-79
2024/03/09 13:43:44;;;;;;;25.80;15.85;;;;;;;;;;5053768;28;20044;-78
2024/03/09 13:46:13;;;;;;;26.02;15.00;;;;;;;;;;5047809;28;20437;-78
2024/03/09 13:48:40;;;;;;;24.83;13.38;;;;;;;;;;5056993;28;20033;-78
2024/03/09 13:51:13;;;;;;;25.10;14.98;;;;;;;;;;5053310;28;20495;-79
2024/03/09 13:53:42;;;;;;;;;;;;;;;;;;5053241;28;20029;-79
2024/03/09 13:56:14;;;;;;;27.60;15.10;;;;;;;;;;5047988;28;19916;-79
2024/03/09 13:58:47;;;;;;;27.27;16.50;;;;;;;;;;5062817;28;20030;-79
2024/03/09 14:01:14;;;;;;;31.58;18.63;;;;;;;;;;5050361;28;20032;-79
2024/03/09 14:03:49;;;;;;;28.95;17.27;;;;;;;;;;5056101;28;20404;-79
2024/03/09 14:06:19;;;;;;;30.73;16.83;;;;;;;;;;5056458;28;20025;-79
2024/03/09 14:08:46;;;;;;;31.98;18.67;;;;;;;;;;5052174;28;20444;-78
2024/03/09 14:11:16;;;;;;;29.83;17.38;;;;;;;;;;5050256;28;20025;-79
2024/03/09 14:13:43;;;;;;;31.13;17.67;;;;;;;;;;5058273;28;20025;-79
2024/03/09 14:16:09;;;;;;;32.10;18.83;;;;;;;;;;5055421;28;20386;-79
2024/03/09 14:18:36;;;;;;;34.85;20.38;;;;;;;;;;5055802;28;20416;-78
2024/03/09 14:21:06;;;;;;;33.20;19.77;;;;;;;;;;5053166;28;20025;-78
2024/03/09 14:23:33;;;;;;;28.10;16.05;;;;;;;;;;5056293;28;20037;-79